Vaaraa aiheuttavia sääilmiöitä ei ole odotettavissa.    Ei varoituksia

Webkamera Lisätietoa Webcam


Sadetutka Lisätietoa rain snow radar


Yksityisiä sääasemia lähellä:

Sääasema Ruovesi, Lehtissaari

Sääasema Juupajoki

Sääasema Muurame

Sääasema Jyväskylä

Sääasema Vihtavuori


Löydät sääaseman tiedot myös:

Finland Weather Exchange

European Weather Network

Weather Underground

AWEKAS



Säätiedot lähimmiltä METAR asemilta

   
EFHA - Halli (Fin-Afb), Finland
Etäisyys asemalta: Kaakko 25 km
Päivitetty: 22.04.2018 16:50
Pilvistä  
Pilvistä  
   Tuuli: Pohjoinen 3.1 m/s
Tuuli: Pohjoinen 3.1 m/s
Lämpötila: 4°C
Tuulen hyytävyys: 1°C
Kastepiste: -2°C
Kosteus: 65%
Ilmanpaine: 1014 hPa
Pilvisyys: Pilvistä
Näkyvyys: Enemmän kuin 10 km
Pilvitiedot: Pilvistä 732 m
EFHA 221350Z AUTO 36006KT 9999 OVC024 04/M02 Q1014
EFJY - Jyvaskyla (Mil/Civ), Finland
Etäisyys asemalta: Koillinen 75 km
Päivitetty: 22.04.2018 16:50
Vähäistä pilvisyyttä  
Vähäistä pilvisyyttä  
   Tuuli: Pohjoiskoillinen 3.1 m/s
Tuuli: Pohjoiskoillinen 3.1 m/s
Lämpötila: 4°C
Tuulen hyytävyys: 1°C
Kastepiste: -5°C
Kosteus: 52%
Ilmanpaine: 1014 hPa
Pilvisyys: Vähäistä pilvisyyttä
Näkyvyys: Enemmän kuin 10 km
Pilvitiedot: Vähäistä pilvisyyttä 1067 m,
Vähäistä pilvisyyttä 1189 m
EFJY 221350Z AUTO 03006KT 9999 FEW035 FEW039 04/M05 Q1014
EFTP - Tampere/Pirkkala, Finland
Etäisyys asemalta: Lounas 81 km
Päivitetty: 22.04.2018 16:50
Pilvistä  
Pilvistä  
   Tuuli: Pohjoiskoillinen 2.6 m/s
Tuuli: Pohjoiskoillinen 2.6 m/s
Lämpötila: 6°C
Tuulen hyytävyys: 4°C
Kastepiste: -1°C
Kosteus: 61%
Ilmanpaine: 1014 hPa
Pilvisyys: Pilvistä
Näkyvyys: Enemmän kuin 10 km
Pilvitiedot: Melkein pilvistä 853 m,
Pilvistä 975 m
EFTP 221350Z AUTO 03005KT 9999 BKN028 OVC032 06/M01 Q1014
EFSI - Seinajoki-Ilmajoki, Finland
Etäisyys asemalta: Luode 114 km
Päivitetty: 22.04.2018 16:50
  
  
   Tuuli: Pohjoinen 1.5 m/s
Tuuli: Pohjoinen 1.5 m/s
Näkyvyys: Enemmän kuin 10 km
EFSI 221350Z AUTO 36003KT 9999 ////// ///// Q////
EFMI - Mikkeli, Finland
Etäisyys asemalta: Itäkaakko 147 km
Päivitetty: 22.04.2018 16:50
Melkein pilvistä  
Melkein pilvistä  
   Tuuli: Vaihtelee 1.5 m/s
Tuuli: Vaihtelee 1.5 m/s
Lämpötila: 4°C
Tuulen hyytävyys: 3°C
Kastepiste: -5°C
Kosteus: 52%
Ilmanpaine: 1014 hPa
Pilvisyys: Melkein pilvistä
Näkyvyys: Enemmän kuin 10 km
Pilvitiedot: Melkein pilvistä 1250 m
EFMI 221350Z AUTO VRB03KT 9999 BKN041 04/M05 Q1014
EFPO - Pori (Mil/Civ), Finland
Etäisyys asemalta: Länsilounas 154 km
Päivitetty: 22.04.2018 16:50
Pilvistä  
Pilvistä  
   Tuuli: Luode 3.6 m/s
Tuuli: Luode 3.6 m/s
Lämpötila: 6°C
Tuulen hyytävyys: 3°C
Kastepiste: 2°C
Kosteus: 76%
Ilmanpaine: 1014 hPa
Pilvisyys: Pilvistä
Näkyvyys: Enemmän kuin 10 km
Pilvitiedot: Vähäistä pilvisyyttä 884 m,
Pilvistä 1036 m
EFPO 221350Z AUTO 32007KT 9999 FEW029/// OVC034/// 06/02 Q1014
EFUT - Utti (Fin-Afb), Finland
Etäisyys asemalta: Kaakko 180 km
Päivitetty: 22.04.2018 16:50
Pilvistä  
Pilvistä  
   Tuuli: Pohjoinen 3.6 m/s
Tuuli: Pohjoinen 3.6 m/s
Lämpötila: 4°C
Tuulen hyytävyys: 1°C
Kastepiste: -4°C
Kosteus: 56%
Ilmanpaine: 1013 hPa
Pilvisyys: Pilvistä
Näkyvyys: Enemmän kuin 10 km
Pilvitiedot: Pilvistä 1036 m
EFUT 221350Z AUTO 36007KT 320V050 9999 OVC034 04/M04 Q1013
EFVA - Vaasa, Finland
Etäisyys asemalta: Luode 180 km
Päivitetty: 22.04.2018 16:50
Melkein pilvistä  
Melkein pilvistä  
   Tuuli: Vaihtelee 1 m/s
Tuuli: Vaihtelee 1 m/s
Lämpötila: 7°C
Kastepiste: 0°C
Kosteus: 61%
Ilmanpaine: 1015 hPa
Pilvisyys: Melkein pilvistä
Näkyvyys: Enemmän kuin 10 km
Pilvitiedot: Melkein pilvistä 793 m
EFVA 221350Z AUTO VRB02KT 9999 BKN026/// 07/00 Q1015
EFHK - Helsinki/Vantaa, Finland
Etäisyys asemalta: Etelä 191 km
Päivitetty: 22.04.2018 16:50
Heikkoa sadetta, Melkein pilvistä  
Heikkoa sadetta, Melkein pilvistä  
   Tuuli: Etelä 3.1 m/s
Tuuli: Etelä 3.1 m/s
Lämpötila: 4°C
Tuulen hyytävyys: 1°C
Kastepiste: 3°C
Kosteus: 93%
Ilmanpaine: 1014 hPa
Pilvisyys: Melkein pilvistä
Näkyvyys: Enemmän kuin 10 km
Pilvitiedot: Vähäistä pilvisyyttä 183 m,
Melkein pilvistä 274 m,
Melkein pilvistä 671 m
EFHK 221350Z 17006KT 140V210 9999 -RA FEW006 BKN009 BKN022 04/03 Q1014 BECMG SCT009 BKN022

Alkuperäinen skripti  Saratoga-weather.org Sovitettu myös templatelle  Weerstation Leuven

Laitteet joita käytämme:

Sääasema
Davis VP2

Sääasemaohjelma
Cumulus

Sääaseman palvelin
HP ProBook 6460b

Palveluntarjoaja
Radicenter

Davis VP2

Cumulus

HP ProBook 6460b

Radicenter




Flag Counter Cumulus Top Weather Sites